Tiptree, United Kingdom
Current Conditions -  °F | °C
As of 4:20 PM on Wednesday 26 Nov 2014 (Local Time) from EGMC Reporting Station
Haze Haze  
Wind Chill: 10°   Ceiling: 800
Heat Index: 10°   Visibility: 3mi
Dew Point:   Wind: 0mph
Humidity: 87%   Direction: NA
Pressure: 29.8"   Gusts: NA
Location:  51.81°N, 0.75°E
Report Text: EGMC 261620Z 00000KT 5000 HZ OVC008 10/08 Q1009
Loading
Personal Weather Stations






























Interactive Weather Map New forecast layout! Learn more

10-Day Weather Forecast

Advertisements
Track Severe Weather on mobile